sensor_id;sensor_type;location;lat;lon;timestamp;P1;durP1;ratioP1;P2;durP2;ratioP2
58978;SDS011;44763;50.464;30.612;2024-02-14T00:00:08;18.60;;;16.10;;
58978;SDS011;44763;50.464;30.612;2024-02-14T00:02:15;17.10;;;14.30;;
58978;SDS011;44763;50.464;30.612;2024-02-14T00:04:17;17.60;;;14.00;;
58978;SDS011;44763;50.464;30.612;2024-02-14T00:06:20;17.70;;;14.90;;
58978;SDS011;44763;50.464;30.612;2024-02-14T00:08:21;16.30;;;14.10;;
58978;SDS011;44763;50.464;30.612;2024-02-14T00:10:23;18.00;;;15.10;;
58978;SDS011;44763;50.464;30.612;2024-02-14T00:12:25;16.10;;;14.40;;
58978;SDS011;44763;50.464;30.612;2024-02-14T00:14:28;15.70;;;14.00;;
58978;SDS011;44763;50.464;30.612;2024-02-14T00:16:30;16.40;;;14.60;;
58978;SDS011;44763;50.464;30.612;2024-02-14T00:18:32;19.50;;;15.40;;
58978;SDS011;44763;50.464;30.612;2024-02-14T00:20:34;15.50;;;13.30;;
58978;SDS011;44763;50.464;30.612;2024-02-14T00:22:38;15.70;;;14.10;;
58978;SDS011;44763;50.464;30.612;2024-02-14T00:24:40;17.10;;;15.00;;
58978;SDS011;44763;50.464;30.612;2024-02-14T00:26:42;19.30;;;15.50;;
58978;SDS011;44763;50.464;30.612;2024-02-14T00:28:44;19.80;;;15.00;;
58978;SDS011;44763;50.464;30.612;2024-02-14T00:30:46;17.90;;;14.80;;
58978;SDS011;44763;50.464;30.612;2024-02-14T00:32:47;18.70;;;15.50;;
58978;SDS011;44763;50.464;30.612;2024-02-14T00:34:49;16.60;;;14.60;;
58978;SDS011;44763;50.464;30.612;2024-02-14T00:36:52;16.40;;;14.30;;
58978;SDS011;44763;50.464;30.612;2024-02-14T00:38:53;17.30;;;14.80;;
58978;SDS011;44763;50.464;30.612;2024-02-14T00:40:55;14.20;;;12.70;;
58978;SDS011;44763;50.464;30.612;2024-02-14T00:42:57;14.00;;;12.40;;
58978;SDS011;44763;50.464;30.612;2024-02-14T00:44:59;13.30;;;11.30;;
58978;SDS011;44763;50.464;30.612;2024-02-14T00:47:01;15.30;;;12.40;;
58978;SDS011;44763;50.464;30.612;2024-02-14T00:49:04;16.40;;;13.20;;
58978;SDS011;44763;50.464;30.612;2024-02-14T00:51:06;18.50;;;13.70;;
58978;SDS011;44763;50.464;30.612;2024-02-14T00:53:08;14.50;;;12.40;;
58978;SDS011;44763;50.464;30.612;2024-02-14T00:55:10;12.80;;;11.50;;
58978;SDS011;44763;50.464;30.612;2024-02-14T00:57:12;13.50;;;12.10;;
58978;SDS011;44763;50.464;30.612;2024-02-14T00:59:14;12.40;;;10.90;;
58978;SDS011;44763;50.464;30.612;2024-02-14T01:01:16;14.70;;;12.10;;
58978;SDS011;44763;50.464;30.612;2024-02-14T01:03:17;13.70;;;11.80;;
58978;SDS011;44763;50.464;30.612;2024-02-14T01:05:19;13.10;;;11.10;;
58978;SDS011;44763;50.464;30.612;2024-02-14T01:07:21;13.00;;;11.60;;
58978;SDS011;44763;50.464;30.612;2024-02-14T01:09:23;10.50;;;9.40;;
58978;SDS011;44763;50.464;30.612;2024-02-14T01:11:25;13.20;;;11.10;;
58978;SDS011;44763;50.464;30.612;2024-02-14T01:13:27;11.40;;;10.20;;
58978;SDS011;44763;50.464;30.612;2024-02-14T01:15:29;10.60;;;9.60;;
58978;SDS011;44763;50.464;30.612;2024-02-14T01:17:30;10.40;;;9.30;;
58978;SDS011;44763;50.464;30.612;2024-02-14T01:19:32;11.00;;;9.50;;
58978;SDS011;44763;50.464;30.612;2024-02-14T01:21:35;10.70;;;9.10;;
58978;SDS011;44763;50.464;30.612;2024-02-14T01:23:36;10.50;;;9.50;;
58978;SDS011;44763;50.464;30.612;2024-02-14T01:25:38;10.70;;;9.40;;
58978;SDS011;44763;50.464;30.612;2024-02-14T01:27:40;9.30;;;8.40;;
58978;SDS011;44763;50.464;30.612;2024-02-14T01:29:43;9.20;;;8.20;;
58978;SDS011;44763;50.464;30.612;2024-02-14T01:31:45;9.40;;;8.50;;
58978;SDS011;44763;50.464;30.612;2024-02-14T01:33:47;9.40;;;8.50;;
58978;SDS011;44763;50.464;30.612;2024-02-14T01:35:49;7.80;;;7.20;;
58978;SDS011;44763;50.464;30.612;2024-02-14T01:37:51;8.30;;;7.50;;
58978;SDS011;44763;50.464;30.612;2024-02-14T01:39:54;8.90;;;8.00;;
58978;SDS011;44763;50.464;30.612;2024-02-14T01:41:55;8.80;;;7.90;;
58978;SDS011;44763;50.464;30.612;2024-02-14T01:43:57;9.40;;;8.50;;
58978;SDS011;44763;50.464;30.612;2024-02-14T01:46:07;7.80;;;7.10;;
58978;SDS011;44763;50.464;30.612;2024-02-14T01:48:09;7.40;;;6.70;;
58978;SDS011;44763;50.464;30.612;2024-02-14T01:50:11;8.30;;;7.50;;
58978;SDS011;44763;50.464;30.612;2024-02-14T01:52:13;8.50;;;7.60;;
58978;SDS011;44763;50.464;30.612;2024-02-14T01:54:15;7.40;;;6.70;;
58978;SDS011;44763;50.464;30.612;2024-02-14T01:56:18;8.60;;;7.70;;
58978;SDS011;44763;50.464;30.612;2024-02-14T01:58:20;8.10;;;7.40;;
58978;SDS011;44763;50.464;30.612;2024-02-14T02:00:22;7.40;;;6.80;;
58978;SDS011;44763;50.464;30.612;2024-02-14T02:02:25;8.50;;;7.60;;
58978;SDS011;44763;50.464;30.612;2024-02-14T02:04:28;8.60;;;7.70;;
58978;SDS011;44763;50.464;30.612;2024-02-14T02:06:29;8.90;;;8.00;;
58978;SDS011;44763;50.464;30.612;2024-02-14T02:08:32;8.00;;;7.20;;
58978;SDS011;44763;50.464;30.612;2024-02-14T02:10:34;8.60;;;7.70;;
58978;SDS011;44763;50.464;30.612;2024-02-14T02:12:37;8.60;;;7.80;;
58978;SDS011;44763;50.464;30.612;2024-02-14T02:14:42;7.70;;;7.00;;
58978;SDS011;44763;50.464;30.612;2024-02-14T02:16:43;8.60;;;7.80;;
58978;SDS011;44763;50.464;30.612;2024-02-14T02:18:45;7.80;;;7.00;;
58978;SDS011;44763;50.464;30.612;2024-02-14T02:20:47;7.80;;;7.20;;
58978;SDS011;44763;50.464;30.612;2024-02-14T02:22:50;9.20;;;6.30;;
58978;SDS011;44763;50.464;30.612;2024-02-14T02:24:52;7.80;;;7.10;;
58978;SDS011;44763;50.464;30.612;2024-02-14T02:26:54;7.60;;;6.80;;
58978;SDS011;44763;50.464;30.612;2024-02-14T02:28:58;7.60;;;6.90;;
58978;SDS011;44763;50.464;30.612;2024-02-14T02:31:01;7.40;;;6.80;;
58978;SDS011;44763;50.464;30.612;2024-02-14T02:33:03;6.60;;;6.10;;
58978;SDS011;44763;50.464;30.612;2024-02-14T02:35:06;8.20;;;7.40;;
58978;SDS011;44763;50.464;30.612;2024-02-14T02:37:08;8.10;;;7.40;;
58978;SDS011;44763;50.464;30.612;2024-02-14T02:39:11;9.00;;;8.10;;
58978;SDS011;44763;50.464;30.612;2024-02-14T02:41:15;7.90;;;7.10;;
58978;SDS011;44763;50.464;30.612;2024-02-14T02:43:18;7.00;;;6.40;;
58978;SDS011;44763;50.464;30.612;2024-02-14T02:45:20;7.70;;;6.90;;
58978;SDS011;44763;50.464;30.612;2024-02-14T02:47:22;9.40;;;8.50;;
58978;SDS011;44763;50.464;30.612;2024-02-14T02:49:24;8.40;;;7.60;;
58978;SDS011;44763;50.464;30.612;2024-02-14T02:51:26;7.70;;;7.10;;
58978;SDS011;44763;50.464;30.612;2024-02-14T02:53:29;11.60;;;8.80;;
58978;SDS011;44763;50.464;30.612;2024-02-14T02:55:31;10.20;;;9.00;;
58978;SDS011;44763;50.464;30.612;2024-02-14T02:57:33;10.70;;;9.00;;
58978;SDS011;44763;50.464;30.612;2024-02-14T02:59:38;9.90;;;8.70;;
58978;SDS011;44763;50.464;30.612;2024-02-14T03:01:44;10.10;;;8.30;;
58978;SDS011;44763;50.464;30.612;2024-02-14T03:03:46;10.60;;;8.00;;
58978;SDS011;44763;50.464;30.612;2024-02-14T03:05:48;8.50;;;7.60;;
58978;SDS011;44763;50.464;30.612;2024-02-14T03:07:50;8.60;;;6.90;;
58978;SDS011;44763;50.464;30.612;2024-02-14T03:09:54;8.20;;;7.00;;
58978;SDS011;44763;50.464;30.612;2024-02-14T03:11:55;8.20;;;7.40;;
58978;SDS011;44763;50.464;30.612;2024-02-14T03:13:58;6.20;;;5.60;;
58978;SDS011;44763;50.464;30.612;2024-02-14T03:16:00;7.10;;;6.40;;
58978;SDS011;44763;50.464;30.612;2024-02-14T03:18:02;7.80;;;5.80;;
58978;SDS011;44763;50.464;30.612;2024-02-14T03:20:10;6.20;;;5.60;;
58978;SDS011;44763;50.464;30.612;2024-02-14T03:22:18;5.40;;;5.00;;
58978;SDS011;44763;50.464;30.612;2024-02-14T03:24:20;6.10;;;5.50;;
58978;SDS011;44763;50.464;30.612;2024-02-14T03:26:22;3.80;;;3.50;;
58978;SDS011;44763;50.464;30.612;2024-02-14T03:28:25;6.00;;;5.20;;
58978;SDS011;44763;50.464;30.612;2024-02-14T03:30:27;5.40;;;5.00;;
58978;SDS011;44763;50.464;30.612;2024-02-14T03:32:31;6.50;;;4.90;;
58978;SDS011;44763;50.464;30.612;2024-02-14T03:34:34;4.20;;;3.80;;
58978;SDS011;44763;50.464;30.612;2024-02-14T03:36:37;4.60;;;4.30;;
58978;SDS011;44763;50.464;30.612;2024-02-14T03:38:40;6.20;;;5.60;;
58978;SDS011;44763;50.464;30.612;2024-02-14T03:40:43;5.60;;;5.20;;
58978;SDS011;44763;50.464;30.612;2024-02-14T03:42:47;5.60;;;5.10;;
58978;SDS011;44763;50.464;30.612;2024-02-14T03:44:49;6.30;;;5.70;;
58978;SDS011;44763;50.464;30.612;2024-02-14T03:46:51;6.10;;;5.40;;
58978;SDS011;44763;50.464;30.612;2024-02-14T03:48:53;5.90;;;5.40;;
58978;SDS011;44763;50.464;30.612;2024-02-14T03:50:56;5.70;;;5.10;;
58978;SDS011;44763;50.464;30.612;2024-02-14T03:52:58;5.50;;;5.00;;
58978;SDS011;44763;50.464;30.612;2024-02-14T03:55:00;5.00;;;4.60;;
58978;SDS011;44763;50.464;30.612;2024-02-14T03:57:02;4.60;;;4.20;;
58978;SDS011;44763;50.464;30.612;2024-02-14T03:59:06;5.00;;;4.60;;
58978;SDS011;44763;50.464;30.612;2024-02-14T04:01:09;4.10;;;3.80;;
58978;SDS011;44763;50.464;30.612;2024-02-14T04:03:13;3.40;;;3.20;;
58978;SDS011;44763;50.464;30.612;2024-02-14T04:05:15;4.60;;;3.50;;
58978;SDS011;44763;50.464;30.612;2024-02-14T04:07:17;3.00;;;2.70;;
58978;SDS011;44763;50.464;30.612;2024-02-14T04:09:19;3.40;;;3.20;;
58978;SDS011;44763;50.464;30.612;2024-02-14T04:11:21;4.40;;;4.00;;
58978;SDS011;44763;50.464;30.612;2024-02-14T04:13:23;3.00;;;2.90;;
58978;SDS011;44763;50.464;30.612;2024-02-14T04:15:25;3.90;;;3.60;;
58978;SDS011;44763;50.464;30.612;2024-02-14T04:17:27;3.70;;;3.40;;
58978;SDS011;44763;50.464;30.612;2024-02-14T04:19:29;4.20;;;3.80;;
58978;SDS011;44763;50.464;30.612;2024-02-14T04:21:31;3.50;;;3.20;;
58978;SDS011;44763;50.464;30.612;2024-02-14T04:23:34;3.20;;;3.00;;
58978;SDS011;44763;50.464;30.612;2024-02-14T04:25:36;5.20;;;3.20;;
58978;SDS011;44763;50.464;30.612;2024-02-14T04:27:38;3.40;;;3.00;;
58978;SDS011;44763;50.464;30.612;2024-02-14T04:29:40;2.50;;;2.40;;
58978;SDS011;44763;50.464;30.612;2024-02-14T04:31:42;3.00;;;2.80;;
58978;SDS011;44763;50.464;30.612;2024-02-14T04:33:44;4.10;;;2.30;;
58978;SDS011;44763;50.464;30.612;2024-02-14T04:35:51;2.20;;;2.10;;
58978;SDS011;44763;50.464;30.612;2024-02-14T04:37:53;3.00;;;2.90;;
58978;SDS011;44763;50.464;30.612;2024-02-14T04:39:54;2.50;;;2.30;;
58978;SDS011;44763;50.464;30.612;2024-02-14T04:41:56;2.80;;;2.60;;
58978;SDS011;44763;50.464;30.612;2024-02-14T04:44:04;3.20;;;3.00;;
58978;SDS011;44763;50.464;30.612;2024-02-14T04:46:08;2.40;;;2.30;;
58978;SDS011;44763;50.464;30.612;2024-02-14T04:48:10;3.10;;;2.90;;
58978;SDS011;44763;50.464;30.612;2024-02-14T04:50:12;2.20;;;2.00;;
58978;SDS011;44763;50.464;30.612;2024-02-14T04:52:15;3.00;;;2.80;;
58978;SDS011;44763;50.464;30.612;2024-02-14T04:54:18;2.20;;;2.10;;
58978;SDS011;44763;50.464;30.612;2024-02-14T04:56:20;3.00;;;2.80;;
58978;SDS011;44763;50.464;30.612;2024-02-14T04:58:22;2.90;;;2.70;;
58978;SDS011;44763;50.464;30.612;2024-02-14T05:00:25;3.10;;;2.90;;
58978;SDS011;44763;50.464;30.612;2024-02-14T05:02:27;3.10;;;2.80;;
58978;SDS011;44763;50.464;30.612;2024-02-14T05:04:29;3.50;;;3.20;;
58978;SDS011;44763;50.464;30.612;2024-02-14T05:06:33;2.80;;;2.60;;
58978;SDS011;44763;50.464;30.612;2024-02-14T05:08:35;3.30;;;3.00;;
58978;SDS011;44763;50.464;30.612;2024-02-14T05:10:37;3.10;;;2.70;;
58978;SDS011;44763;50.464;30.612;2024-02-14T05:12:39;3.00;;;2.70;;
58978;SDS011;44763;50.464;30.612;2024-02-14T05:14:42;3.20;;;2.90;;
58978;SDS011;44763;50.464;30.612;2024-02-14T05:16:44;3.80;;;3.40;;
58978;SDS011;44763;50.464;30.612;2024-02-14T05:18:46;3.10;;;2.80;;
58978;SDS011;44763;50.464;30.612;2024-02-14T05:20:48;2.90;;;2.70;;
58978;SDS011;44763;50.464;30.612;2024-02-14T05:22:51;2.70;;;2.60;;
58978;SDS011;44763;50.464;30.612;2024-02-14T05:24:52;2.60;;;2.40;;
58978;SDS011;44763;50.464;30.612;2024-02-14T05:26:54;2.80;;;2.60;;
58978;SDS011;44763;50.464;30.612;2024-02-14T05:28:57;3.20;;;3.00;;
58978;SDS011;44763;50.464;30.612;2024-02-14T05:30:59;2.70;;;2.50;;
58978;SDS011;44763;50.464;30.612;2024-02-14T05:33:01;3.10;;;2.80;;
58978;SDS011;44763;50.464;30.612;2024-02-14T05:35:04;3.00;;;2.80;;
58978;SDS011;44763;50.464;30.612;2024-02-14T05:37:08;2.80;;;2.60;;
58978;SDS011;44763;50.464;30.612;2024-02-14T05:39:10;2.40;;;2.20;;
58978;SDS011;44763;50.464;30.612;2024-02-14T05:41:12;3.30;;;2.80;;
58978;SDS011;44763;50.464;30.612;2024-02-14T05:43:14;3.80;;;2.60;;
58978;SDS011;44763;50.464;30.612;2024-02-14T05:45:16;2.40;;;2.30;;
58978;SDS011;44763;50.464;30.612;2024-02-14T05:47:18;2.00;;;1.90;;
58978;SDS011;44763;50.464;30.612;2024-02-14T05:49:21;2.10;;;2.00;;
58978;SDS011;44763;50.464;30.612;2024-02-14T05:51:24;2.50;;;2.30;;
58978;SDS011;44763;50.464;30.612;2024-02-14T05:53:26;2.30;;;2.20;;
58978;SDS011;44763;50.464;30.612;2024-02-14T05:55:28;5.10;;;3.40;;
58978;SDS011;44763;50.464;30.612;2024-02-14T05:57:30;4.00;;;3.20;;
58978;SDS011;44763;50.464;30.612;2024-02-14T05:59:32;2.90;;;2.70;;
58978;SDS011;44763;50.464;30.612;2024-02-14T06:01:34;2.90;;;2.70;;
58978;SDS011;44763;50.464;30.612;2024-02-14T06:03:36;2.50;;;2.40;;
58978;SDS011;44763;50.464;30.612;2024-02-14T06:05:38;2.80;;;2.60;;
58978;SDS011;44763;50.464;30.612;2024-02-14T06:07:40;2.40;;;2.30;;
58978;SDS011;44763;50.464;30.612;2024-02-14T06:09:46;3.00;;;2.80;;
58978;SDS011;44763;50.464;30.612;2024-02-14T06:11:48;4.10;;;3.10;;
58978;SDS011;44763;50.464;30.612;2024-02-14T06:13:50;3.10;;;2.90;;
58978;SDS011;44763;50.464;30.612;2024-02-14T06:15:51;3.10;;;2.60;;
58978;SDS011;44763;50.464;30.612;2024-02-14T06:17:53;4.00;;;3.60;;
58978;SDS011;44763;50.464;30.612;2024-02-14T06:19:55;3.90;;;3.60;;
58978;SDS011;44763;50.464;30.612;2024-02-14T06:21:58;4.10;;;3.30;;
58978;SDS011;44763;50.464;30.612;2024-02-14T06:24:00;4.20;;;3.10;;
58978;SDS011;44763;50.464;30.612;2024-02-14T06:26:05;4.10;;;3.70;;
58978;SDS011;44763;50.464;30.612;2024-02-14T06:28:08;2.80;;;2.60;;
58978;SDS011;44763;50.464;30.612;2024-02-14T06:30:11;2.90;;;2.70;;
58978;SDS011;44763;50.464;30.612;2024-02-14T06:32:14;2.90;;;2.70;;
58978;SDS011;44763;50.464;30.612;2024-02-14T06:34:16;4.60;;;4.20;;
58978;SDS011;44763;50.464;30.612;2024-02-14T06:36:18;3.40;;;3.20;;
58978;SDS011;44763;50.464;30.612;2024-02-14T06:38:20;4.20;;;3.80;;
58978;SDS011;44763;50.464;30.612;2024-02-14T06:40:22;3.70;;;3.40;;
58978;SDS011;44763;50.464;30.612;2024-02-14T06:42:23;4.90;;;4.50;;
58978;SDS011;44763;50.464;30.612;2024-02-14T06:44:25;6.30;;;3.80;;
58978;SDS011;44763;50.464;30.612;2024-02-14T06:46:27;3.10;;;2.90;;
58978;SDS011;44763;50.464;30.612;2024-02-14T06:48:29;5.30;;;4.00;;
58978;SDS011;44763;50.464;30.612;2024-02-14T06:50:31;5.80;;;3.40;;
58978;SDS011;44763;50.464;30.612;2024-02-14T06:52:33;2.60;;;2.40;;
58978;SDS011;44763;50.464;30.612;2024-02-14T06:54:35;10.70;;;6.00;;
58978;SDS011;44763;50.464;30.612;2024-02-14T06:56:37;7.40;;;3.60;;
58978;SDS011;44763;50.464;30.612;2024-02-14T06:58:39;12.50;;;6.90;;
58978;SDS011;44763;50.464;30.612;2024-02-14T07:00:40;3.80;;;2.80;;
58978;SDS011;44763;50.464;30.612;2024-02-14T07:02:42;3.80;;;3.40;;
58978;SDS011;44763;50.464;30.612;2024-02-14T07:04:45;3.30;;;3.00;;
58978;SDS011;44763;50.464;30.612;2024-02-14T07:06:47;2.80;;;2.60;;
58978;SDS011;44763;50.464;30.612;2024-02-14T07:08:48;3.10;;;2.80;;
58978;SDS011;44763;50.464;30.612;2024-02-14T07:10:50;3.00;;;2.70;;
58978;SDS011;44763;50.464;30.612;2024-02-14T07:12:52;5.50;;;3.40;;
58978;SDS011;44763;50.464;30.612;2024-02-14T07:14:54;2.60;;;2.40;;
58978;SDS011;44763;50.464;30.612;2024-02-14T07:16:56;3.30;;;3.00;;
58978;SDS011;44763;50.464;30.612;2024-02-14T07:18:58;3.20;;;2.70;;
58978;SDS011;44763;50.464;30.612;2024-02-14T07:21:00;5.40;;;2.60;;
58978;SDS011;44763;50.464;30.612;2024-02-14T07:23:03;2.70;;;2.50;;
58978;SDS011;44763;50.464;30.612;2024-02-14T07:25:06;2.90;;;2.70;;
58978;SDS011;44763;50.464;30.612;2024-02-14T07:27:10;3.40;;;2.50;;
58978;SDS011;44763;50.464;30.612;2024-02-14T07:29:12;3.40;;;2.60;;
58978;SDS011;44763;50.464;30.612;2024-02-14T07:31:14;1.90;;;1.80;;
58978;SDS011;44763;50.464;30.612;2024-02-14T07:33:16;2.80;;;2.60;;
58978;SDS011;44763;50.464;30.612;2024-02-14T07:35:18;3.30;;;1.90;;
58978;SDS011;44763;50.464;30.612;2024-02-14T07:37:20;3.20;;;2.90;;
58978;SDS011;44763;50.464;30.612;2024-02-14T07:39:22;1.90;;;1.80;;
58978;SDS011;44763;50.464;30.612;2024-02-14T07:41:25;2.30;;;2.10;;
58978;SDS011;44763;50.464;30.612;2024-02-14T07:43:26;2.70;;;2.50;;
58978;SDS011;44763;50.464;30.612;2024-02-14T07:45:28;2.20;;;2.00;;
58978;SDS011;44763;50.464;30.612;2024-02-14T07:47:31;3.80;;;2.70;;
58978;SDS011;44763;50.464;30.612;2024-02-14T07:49:33;2.90;;;2.20;;
58978;SDS011;44763;50.464;30.612;2024-02-14T07:51:35;2.40;;;2.10;;
58978;SDS011;44763;50.464;30.612;2024-02-14T07:53:40;3.40;;;2.80;;
58978;SDS011;44763;50.464;30.612;2024-02-14T07:55:42;2.20;;;2.10;;
58978;SDS011;44763;50.464;30.612;2024-02-14T07:57:44;4.10;;;2.30;;
58978;SDS011;44763;50.464;30.612;2024-02-14T07:59:46;2.40;;;2.20;;
58978;SDS011;44763;50.464;30.612;2024-02-14T08:01:50;2.60;;;2.40;;
58978;SDS011;44763;50.464;30.612;2024-02-14T08:03:55;2.70;;;2.00;;
58978;SDS011;44763;50.464;30.612;2024-02-14T08:05:56;7.70;;;5.20;;
58978;SDS011;44763;50.464;30.612;2024-02-14T08:07:58;7.50;;;6.70;;
58978;SDS011;44763;50.464;30.612;2024-02-14T08:10:00;2.70;;;2.50;;
58978;SDS011;44763;50.464;30.612;2024-02-14T08:12:02;3.10;;;2.90;;
58978;SDS011;44763;50.464;30.612;2024-02-14T08:14:04;3.90;;;2.90;;
58978;SDS011;44763;50.464;30.612;2024-02-14T08:16:07;3.00;;;2.70;;
58978;SDS011;44763;50.464;30.612;2024-02-14T08:18:09;3.50;;;2.10;;
58978;SDS011;44763;50.464;30.612;2024-02-14T08:20:13;3.10;;;2.00;;
58978;SDS011;44763;50.464;30.612;2024-02-14T08:22:15;2.20;;;2.00;;
58978;SDS011;44763;50.464;30.612;2024-02-14T08:24:17;1.90;;;1.40;;
58978;SDS011;44763;50.464;30.612;2024-02-14T08:26:19;1.90;;;1.80;;
58978;SDS011;44763;50.464;30.612;2024-02-14T08:28:21;2.20;;;2.00;;
58978;SDS011;44763;50.464;30.612;2024-02-14T08:30:23;1.70;;;1.50;;
58978;SDS011;44763;50.464;30.612;2024-02-14T08:32:26;1.70;;;1.40;;
58978;SDS011;44763;50.464;30.612;2024-02-14T08:34:27;3.50;;;2.10;;
58978;SDS011;44763;50.464;30.612;2024-02-14T08:36:32;2.70;;;2.00;;
58978;SDS011;44763;50.464;30.612;2024-02-14T08:38:36;3.70;;;1.90;;
58978;SDS011;44763;50.464;30.612;2024-02-14T08:40:38;1.50;;;1.40;;
58978;SDS011;44763;50.464;30.612;2024-02-14T08:42:41;6.40;;;2.10;;
58978;SDS011;44763;50.464;30.612;2024-02-14T08:44:42;2.10;;;1.70;;
58978;SDS011;44763;50.464;30.612;2024-02-14T08:46:45;2.70;;;2.40;;
58978;SDS011;44763;50.464;30.612;2024-02-14T08:50:52;2.00;;;1.30;;
58978;SDS011;44763;50.464;30.612;2024-02-14T08:52:55;3.40;;;2.50;;
58978;SDS011;44763;50.464;30.612;2024-02-14T08:54:57;2.60;;;1.50;;
58978;SDS011;44763;50.464;30.612;2024-02-14T08:56:58;2.00;;;1.30;;
58978;SDS011;44763;50.464;30.612;2024-02-14T08:59:01;2.30;;;1.70;;
58978;SDS011;44763;50.464;30.612;2024-02-14T09:01:06;4.90;;;1.60;;
58978;SDS011;44763;50.464;30.612;2024-02-14T09:03:16;2.20;;;2.00;;
58978;SDS011;44763;50.464;30.612;2024-02-14T09:05:22;1.80;;;1.70;;
58978;SDS011;44763;50.464;30.612;2024-02-14T09:07:24;2.20;;;1.80;;
58978;SDS011;44763;50.464;30.612;2024-02-14T09:09:26;2.50;;;1.80;;
58978;SDS011;44763;50.464;30.612;2024-02-14T09:11:28;3.10;;;2.00;;
58978;SDS011;44763;50.464;30.612;2024-02-14T09:13:30;1.80;;;1.70;;
58978;SDS011;44763;50.464;30.612;2024-02-14T09:15:32;2.00;;;1.90;;
58978;SDS011;44763;50.464;30.612;2024-02-14T09:17:34;4.10;;;2.10;;
58978;SDS011;44763;50.464;30.612;2024-02-14T09:19:36;1.90;;;1.30;;
58978;SDS011;44763;50.464;30.612;2024-02-14T09:21:38;3.00;;;2.00;;
58978;SDS011;44763;50.464;30.612;2024-02-14T09:23:40;2.80;;;0.90;;
58978;SDS011;44763;50.464;30.612;2024-02-14T09:25:42;1.80;;;1.60;;
58978;SDS011;44763;50.464;30.612;2024-02-14T09:27:44;1.80;;;1.10;;
58978;SDS011;44763;50.464;30.612;2024-02-14T09:29:48;0.90;;;0.40;;
58978;SDS011;44763;50.464;30.612;2024-02-14T09:31:50;1.40;;;0.60;;
58978;SDS011;44763;50.464;30.612;2024-02-14T09:33:53;3.90;;;1.50;;
58978;SDS011;44763;50.464;30.612;2024-02-14T09:35:58;1.80;;;1.10;;
58978;SDS011;44763;50.464;30.612;2024-02-14T09:38:00;1.90;;;0.90;;
58978;SDS011;44763;50.464;30.612;2024-02-14T09:40:03;2.70;;;2.00;;
58978;SDS011;44763;50.464;30.612;2024-02-14T09:42:09;2.30;;;0.70;;
58978;SDS011;44763;50.464;30.612;2024-02-14T09:44:13;2.20;;;1.00;;
58978;SDS011;44763;50.464;30.612;2024-02-14T09:46:15;1.10;;;0.80;;
58978;SDS011;44763;50.464;30.612;2024-02-14T09:48:19;1.50;;;1.10;;
58978;SDS011;44763;50.464;30.612;2024-02-14T09:50:24;2.20;;;0.80;;
58978;SDS011;44763;50.464;30.612;2024-02-14T09:52:26;1.80;;;1.00;;
58978;SDS011;44763;50.464;30.612;2024-02-14T09:54:29;0.70;;;0.70;;
58978;SDS011;44763;50.464;30.612;2024-02-14T09:56:32;0.80;;;0.80;;
58978;SDS011;44763;50.464;30.612;2024-02-14T09:58:34;2.10;;;0.90;;
58978;SDS011;44763;50.464;30.612;2024-02-14T10:00:38;1.60;;;1.20;;
58978;SDS011;44763;50.464;30.612;2024-02-14T10:02:40;2.60;;;0.90;;
58978;SDS011;44763;50.464;30.612;2024-02-14T10:04:47;1.90;;;1.00;;
58978;SDS011;44763;50.464;30.612;2024-02-14T10:06:50;3.40;;;1.20;;
58978;SDS011;44763;50.464;30.612;2024-02-14T10:08:52;2.30;;;2.00;;
58978;SDS011;44763;50.464;30.612;2024-02-14T10:11:42;4.90;;;2.40;;
58978;SDS011;44763;50.464;30.612;2024-02-14T10:13:46;2.80;;;2.20;;
58978;SDS011;44763;50.464;30.612;2024-02-14T10:15:49;2.30;;;1.60;;
58978;SDS011;44763;50.464;30.612;2024-02-14T10:17:51;2.80;;;1.70;;
58978;SDS011;44763;50.464;30.612;2024-02-14T10:19:57;4.60;;;1.80;;
58978;SDS011;44763;50.464;30.612;2024-02-14T10:22:00;2.30;;;1.70;;
58978;SDS011;44763;50.464;30.612;2024-02-14T10:24:06;2.90;;;1.60;;
58978;SDS011;44763;50.464;30.612;2024-02-14T10:26:09;2.50;;;1.70;;
58978;SDS011;44763;50.464;30.612;2024-02-14T10:28:11;2.00;;;1.70;;
58978;SDS011;44763;50.464;30.612;2024-02-14T10:30:13;7.20;;;2.30;;
58978;SDS011;44763;50.464;30.612;2024-02-14T10:32:16;2.30;;;1.60;;
58978;SDS011;44763;50.464;30.612;2024-02-14T10:34:18;2.70;;;2.00;;
58978;SDS011;44763;50.464;30.612;2024-02-14T10:36:27;3.70;;;2.10;;
58978;SDS011;44763;50.464;30.612;2024-02-14T10:38:30;3.90;;;2.50;;
58978;SDS011;44763;50.464;30.612;2024-02-14T10:40:36;3.00;;;1.90;;
58978;SDS011;44763;50.464;30.612;2024-02-14T10:42:40;4.10;;;2.20;;
58978;SDS011;44763;50.464;30.612;2024-02-14T10:44:42;4.50;;;2.40;;
58978;SDS011;44763;50.464;30.612;2024-02-14T10:46:46;5.80;;;2.60;;
58978;SDS011;44763;50.464;30.612;2024-02-14T10:48:55;5.10;;;2.00;;
58978;SDS011;44763;50.464;30.612;2024-02-14T10:51:02;2.50;;;1.40;;
58978;SDS011;44763;50.464;30.612;2024-02-14T10:53:12;3.40;;;1.50;;
58978;SDS011;44763;50.464;30.612;2024-02-14T10:55:16;2.70;;;1.60;;
58978;SDS011;44763;50.464;30.612;2024-02-14T10:57:18;5.40;;;2.50;;
58978;SDS011;44763;50.464;30.612;2024-02-14T10:59:23;13.80;;;1.70;;
58978;SDS011;44763;50.464;30.612;2024-02-14T11:01:27;3.40;;;1.80;;
58978;SDS011;44763;50.464;30.612;2024-02-14T11:03:32;4.10;;;2.30;;
58978;SDS011;44763;50.464;30.612;2024-02-14T11:05:47;5.00;;;1.80;;
58978;SDS011;44763;50.464;30.612;2024-02-14T11:07:50;4.10;;;2.60;;
58978;SDS011;44763;50.464;30.612;2024-02-14T11:10:04;3.80;;;1.60;;
58978;SDS011;44763;50.464;30.612;2024-02-14T11:12:07;1.90;;;1.20;;
58978;SDS011;44763;50.464;30.612;2024-02-14T11:14:10;2.90;;;1.50;;
58978;SDS011;44763;50.464;30.612;2024-02-14T11:16:16;2.70;;;0.90;;
58978;SDS011;44763;50.464;30.612;2024-02-14T11:18:24;3.60;;;1.70;;
58978;SDS011;44763;50.464;30.612;2024-02-14T11:20:36;2.80;;;1.30;;
58978;SDS011;44763;50.464;30.612;2024-02-14T11:22:38;1.70;;;1.00;;
58978;SDS011;44763;50.464;30.612;2024-02-14T11:24:40;2.60;;;1.00;;
58978;SDS011;44763;50.464;30.612;2024-02-14T11:28:59;2.10;;;1.30;;
58978;SDS011;44763;50.464;30.612;2024-02-14T11:31:03;3.60;;;1.70;;
58978;SDS011;44763;50.464;30.612;2024-02-14T11:33:16;2.50;;;1.50;;
58978;SDS011;44763;50.464;30.612;2024-02-14T11:35:23;3.30;;;1.30;;
58978;SDS011;44763;50.464;30.612;2024-02-14T11:37:29;4.40;;;2.10;;
58978;SDS011;44763;50.464;30.612;2024-02-14T11:39:33;3.20;;;1.50;;
58978;SDS011;44763;50.464;30.612;2024-02-14T11:41:35;3.30;;;1.70;;
58978;SDS011;44763;50.464;30.612;2024-02-14T11:43:39;3.00;;;1.10;;
58978;SDS011;44763;50.464;30.612;2024-02-14T11:45:42;1.80;;;1.00;;
58978;SDS011;44763;50.464;30.612;2024-02-14T11:47:44;3.20;;;1.40;;
58978;SDS011;44763;50.464;30.612;2024-02-14T11:49:46;4.90;;;2.50;;
58978;SDS011;44763;50.464;30.612;2024-02-14T11:51:48;5.60;;;2.80;;
58978;SDS011;44763;50.464;30.612;2024-02-14T11:53:50;2.80;;;2.20;;
58978;SDS011;44763;50.464;30.612;2024-02-14T11:55:52;4.00;;;1.60;;
58978;SDS011;44763;50.464;30.612;2024-02-14T11:57:54;2.70;;;2.00;;
58978;SDS011;44763;50.464;30.612;2024-02-14T11:59:57;5.20;;;2.00;;
58978;SDS011;44763;50.464;30.612;2024-02-14T12:01:59;1.70;;;1.60;;
58978;SDS011;44763;50.464;30.612;2024-02-14T12:04:01;4.30;;;1.90;;
58978;SDS011;44763;50.464;30.612;2024-02-14T12:06:06;3.10;;;1.70;;
58978;SDS011;44763;50.464;30.612;2024-02-14T12:08:08;2.10;;;1.20;;
58978;SDS011;44763;50.464;30.612;2024-02-14T12:10:11;2.30;;;1.00;;